CheckWX is a tool to help pilots better visualize weather data.  It is not intended as a substitute for an official pre-flight weather briefing.

12:24:06 UTC

KDGW METAR
Converse County Airport
Douglas, Wyoming, USA
Current

31 mins ago

KDGW 181153Z AUTO 00000KT 10SM CLR M21/M25 A3015 RMK AO2 SLP308 I1000 I6000 T12061250 11167 21217 56005 $
Observed
Feb-18 @ 11:53 UTC
Visibility
10 SM
Flight Rules
VFR
Cloud Levels
  • Clear skies
Temperature
-21°C / -6°F
Dewpoint
-25°C / -13°F
Humidity
70%
Altimeter
30.15" Hg
Pressure
1030.8 hPa
Previous

2 hours ago

KDGW 181053Z AUTO 00000KT 10SM CLR M21/M23 A3015 RMK AO2 SLP306 T12061233 $
Observed
Feb-18 @ 10:53 UTC
Visibility
10 SM
Flight Rules
VFR
Cloud Levels
  • Clear skies
Temperature
-21°C / -6°F
Dewpoint
-23°C / -9°F
Humidity
84%
Altimeter
30.15" Hg
Pressure
1030.6 hPa
Previous

3 hours ago

KDGW 180953Z AUTO 33003KT 10SM CLR M21/M24 A3016 RMK AO2 SLP308 T12061244 $
Observed
Feb-18 @ 09:53 UTC
Wind
  • 330° at 3 KTS
Visibility
10 SM
Flight Rules
VFR
Cloud Levels
  • Clear skies
Temperature
-21°C / -6°F
Dewpoint
-24°C / -11°F
Humidity
77%
Altimeter
30.16" Hg
Pressure
1030.8 hPa